»·PEaware :: TEXAN22 KRND-KRND

TEXAN22 :: KRND-KRND

FLIGHT INFORMATION

Flight Status: Arrived
Operator: Unknown
More flights by this operator :: More flights under this callsign
Pilot: Indie I. (23343)
Aircraft: BEECH AIRCRAFT T-6A TEXAN
(TEX2)
More flights by this aircraft type
Origin: KRND Randolph AFB
United States
Destination: KRND Randolph AFB
United States
More flights between these airports :: More routes between these airports
Route:
File this flight plan on PilotEdge
Remarks: TWEE6
Altitude:
(Current/Filed)
11,000ft
Speed:
(Current/Filed)
200kts
Departed: 20-Aug-20 11:19 AM
Arrived: 20-Aug-20 11:48 AM
Distance/Time
Traveled:
1nm/0:29
Distance/Time
To Go:
Arrived

Flight Plot

Page will automatically refresh every two minutes.

Flight plan parsing failed; only flown route is shown


Map Options




Map Legend


Flown Route
Filed Route
Departure Airport
Arrival Airport
Navaid (VOR, NDB)
Fix

Horizontal Profiles

Position Reports

Time Latitude Longitude Heading Altitude Ground
Speed
20-Aug-20 10:55 29.515452 -98.280335 330 766ft 0kts
20-Aug-20 10:57 29.515452 -98.280335 330 766ft 0kts
20-Aug-20 10:58 29.515452 -98.280335 330 766ft 0kts
20-Aug-20 10:58 29.515592 -98.278908 329 766ft 0kts
20-Aug-20 10:59 29.515593 -98.278909 329 765ft 0kts
20-Aug-20 11:00 29.515596 -98.278911 329 765ft 0kts
20-Aug-20 11:01 29.515598 -98.278912 329 765ft 0kts
20-Aug-20 11:02 29.515600 -98.278914 329 765ft 0kts
20-Aug-20 11:03 29.515603 -98.278916 329 765ft 0kts
20-Aug-20 11:04 29.515605 -98.278917 329 765ft 0kts
20-Aug-20 11:05 29.515608 -98.278919 329 765ft 0kts
20-Aug-20 11:06 29.515610 -98.278921 329 765ft 0kts
20-Aug-20 11:07 29.515613 -98.278922 329 765ft 0kts
20-Aug-20 11:08 29.515615 -98.278924 329 765ft 0kts
20-Aug-20 11:09 29.515617 -98.278926 329 765ft 0kts
20-Aug-20 11:10 29.515620 -98.278927 329 765ft 0kts
20-Aug-20 11:11 29.515622 -98.278929 329 765ft 0kts
20-Aug-20 11:12 29.515625 -98.278931 329 765ft 0kts
20-Aug-20 11:13 29.515627 -98.278932 329 765ft 0kts
20-Aug-20 11:14 29.515630 -98.278934 329 765ft 0kts
20-Aug-20 11:15 29.515632 -98.278935 329 765ft 0kts
20-Aug-20 11:16 29.515635 -98.278937 329 765ft 0kts
20-Aug-20 11:17 29.515355 -98.280246 323 765ft 1kts
20-Aug-20 11:18 29.546337 -98.300482 320 1614ft 216kts
20-Aug-20 11:19 29.516014 -98.317234 146 1876ft 217kts
20-Aug-20 11:20 29.463861 -98.282744 151 2544ft 209kts
20-Aug-20 11:21 29.409612 -98.253780 166 4800ft 225kts
20-Aug-20 11:22 29.351851 -98.248393 212 8403ft 213kts
20-Aug-20 11:23 29.338239 -98.313573 283 10986ft 242kts
20-Aug-20 11:24 29.347118 -98.389637 263 11267ft 248kts
20-Aug-20 11:25 29.377838 -98.460994 294 11408ft 251kts
20-Aug-20 11:26 29.408802 -98.535625 290 11062ft 270kts
20-Aug-20 11:27 29.442184 -98.606614 298 11230ft 265kts
20-Aug-20 11:28 29.469472 -98.684436 283 10992ft 250kts
20-Aug-20 11:29 29.501942 -98.754607 301 10799ft 254kts
20-Aug-20 11:30 29.545696 -98.813298 320 12002ft 218kts
20-Aug-20 11:31 29.583348 -98.837611 339 14378ft 221kts
20-Aug-20 11:32 29.583348 -98.837611 339 14378ft 221kts
20-Aug-20 11:33 29.583348 -98.837611 339 14378ft 221kts
20-Aug-20 11:34 29.635377 -98.831555 49 14561ft 283kts
20-Aug-20 11:35 29.588759 -98.796076 188 14864ft 281kts
20-Aug-20 11:36 29.623901 -98.795774 50 15311ft 255kts
20-Aug-20 11:37 29.658948 -98.841872 281 14071ft 261kts
20-Aug-20 11:38 29.663953 -98.919420 266 12440ft 235kts
20-Aug-20 11:39 29.641201 -98.980339 187 10282ft 233kts
20-Aug-20 11:40 29.578507 -98.968370 182 8225ft 227kts
20-Aug-20 11:41 29.521773 -98.957659 115 5968ft 230kts
20-Aug-20 11:42 29.530024 -98.888376 70 4031ft 216kts
20-Aug-20 11:43 29.546569 -98.821645 77 4290ft 224kts
20-Aug-20 11:44 29.565643 -98.754820 71 3093ft 213kts
20-Aug-20 11:45 29.580871 -98.694780 73 3036ft 237kts
20-Aug-20 11:47 29.515389 -98.279242 329 766ft 0kts
20-Aug-20 11:48 29.515415 -98.279259 329 765ft 0kts
20-Aug-20 11:49 29.534624 -98.292988 149 765ft 0kts
20-Aug-20 11:50 29.515432 -98.279267 329 765ft 0kts
20-Aug-20 11:51 29.515432 -98.279267 329 765ft 0kts
20-Aug-20 11:52 29.515432 -98.279267 329 765ft 0kts
20-Aug-20 11:53 29.515432 -98.279267 329 765ft 0kts
20-Aug-20 11:54 29.515432 -98.279267 329 765ft 0kts
20-Aug-20 11:55 29.515432 -98.279267 329 765ft 0kts
20-Aug-20 11:56 29.515432 -98.279267 329 765ft 0kts
20-Aug-20 11:57 29.515432 -98.279267 329 765ft 0kts
20-Aug-20 11:58 29.515432 -98.279267 329 765ft 0kts
20-Aug-20 11:59 29.515432 -98.279267 329 765ft 0kts
20-Aug-20 12:00 29.515432 -98.279267 329 765ft 0kts
20-Aug-20 12:01 29.515432 -98.279267 329 765ft 0kts

Navigation Log

Ident Type
Flight plan parsing failed, navigation log unavailable